Archiv-/Tagesdaten

--Timestamp---	Temp	Chill	HIndex	Humid	Dewpt	 Wind 	HiWind	WindDir	Rain 	Barom	Solar	 ET  	 UV 
--------------	----	-----	------	-----	-----	------	------	-------	-----	-----	-----	-----	----
20100921 00:00	8.9	8.9	8.9	86	6.7	0	0	-100000	0.0	1018.6	0	0.000	0.0
20100921 00:05	8.8	8.8	8.8	86	6.6	0	0	-100000	0.0	1018.6	0	0.000	0.0
20100921 00:10	8.7	8.7	8.7	86	6.5	0	2	68	0.0	1018.6	0	0.000	0.0
20100921 00:15	8.7	8.7	8.7	87	6.6	0	3	68	0.0	1018.6	0	0.000	0.0
20100921 00:20	8.7	8.7	8.7	87	6.6	0	2	68	0.0	1018.5	0	0.000	0.0
20100921 00:25	8.6	8.6	8.6	87	6.6	0	2	68	0.0	1018.5	0	0.000	0.0
20100921 00:30	8.6	8.6	8.6	87	6.6	0	0	-100000	0.0	1018.5	0	0.000	0.0
20100921 00:35	8.6	8.6	8.6	87	6.5	0	0	-100000	0.0	1018.5	0	0.000	0.0
20100921 00:40	8.5	8.5	8.5	87	6.5	0	2	68	0.0	1018.5	0	0.000	0.0
20100921 00:45	8.4	8.4	8.4	87	6.4	0	0	-100000	0.0	1018.6	0	0.000	0.0
20100921 00:50	8.3	8.3	8.3	87	6.3	0	0	-100000	0.0	1018.7	0	0.000	0.0
20100921 00:55	8.2	8.2	8.2	87	6.2	0	0	-100000	0.0	1018.7	0	0.000	0.0
20100921 01:00	8.2	8.2	8.2	87	6.1	0	0	-100000	0.0	1018.6	0	0.000	0.0
20100921 01:05	8.1	8.1	8.1	87	6.0	0	0	-100000	0.0	1018.6	0	0.000	0.0
20100921 01:10	8.1	8.1	8.1	87	6.0	0	0	-100000	0.0	1018.6	0	0.000	0.0
20100921 01:15	8.0	8.0	8.0	88	6.1	0	2	68	0.0	1018.5	0	0.000	0.0
20100921 01:20	8.1	8.1	8.1	88	6.2	2	5	68	0.0	1018.5	0	0.000	0.0
20100921 01:25	8.1	8.1	8.1	89	6.4	3	6	68	0.0	1018.4	0	0.000	0.0
20100921 01:30	8.2	8.2	8.2	89	6.5	3	6	68	0.0	1018.5	0	0.000	0.0
20100921 01:35	8.2	8.2	8.2	88	6.3	2	5	68	0.0	1018.5	0	0.000	0.0
20100921 01:40	8.2	8.2	8.2	88	6.3	2	5	68	0.0	1018.6	0	0.000	0.0
20100921 01:45	8.1	8.1	8.1	88	6.2	3	5	68	0.0	1018.6	0	0.000	0.0
20100921 01:50	8.1	8.1	8.1	88	6.2	3	6	68	0.0	1018.6	0	0.000	0.0
20100921 01:55	8.1	8.1	8.1	88	6.2	3	6	68	0.0	1018.5	0	0.000	0.0
20100921 02:00	8.1	8.1	8.1	89	6.4	3	6	68	0.0	1018.5	0	0.000	0.0
20100921 02:05	8.1	8.1	8.1	89	6.4	5	8	68	0.0	1018.3	0	0.000	0.0
20100921 02:10	8.1	8.1	8.1	89	6.4	5	8	112	0.0	1018.3	0	0.000	0.0
20100921 02:15	8.1	8.1	8.1	89	6.4	3	8	135	0.0	1018.2	0	0.000	0.0
20100921 02:20	8.1	8.1	8.1	89	6.4	3	8	135	0.0	1018.3	0	0.000	0.0
20100921 02:25	8.1	8.1	8.1	89	6.4	3	6	135	0.0	1018.3	0	0.000	0.0
20100921 02:30	8.1	8.1	8.1	89	6.4	5	8	135	0.0	1018.3	0	0.000	0.0
20100921 02:35	8.1	8.1	8.1	89	6.4	3	6	135	0.0	1018.3	0	0.000	0.0
20100921 02:40	8.0	8.0	8.0	89	6.3	5	8	135	0.0	1018.4	0	0.000	0.0
20100921 02:45	8.0	8.0	8.0	89	6.3	3	6	135	0.0	1018.4	0	0.000	0.0
20100921 02:50	8.0	8.0	8.0	89	6.3	3	6	135	0.0	1018.4	0	0.000	0.0
20100921 02:55	7.9	7.9	7.9	89	6.2	3	6	135	0.0	1018.4	0	0.000	0.0
20100921 03:00	8.0	8.0	8.0	89	6.3	3	8	135	0.0	1018.4	0	0.000	0.0
20100921 03:05	8.0	8.0	8.0	89	6.3	2	5	135	0.0	1018.4	0	0.000	0.0
20100921 03:10	8.0	8.0	8.0	89	6.3	0	3	135	0.0	1018.4	0	0.000	0.0
20100921 03:15	8.0	8.0	8.0	89	6.3	0	0	-100000	0.0	1018.5	0	0.000	0.0
20100921 03:20	7.9	7.9	7.9	89	6.2	0	0	-100000	0.0	1018.4	0	0.000	0.0
20100921 03:25	7.8	7.8	7.8	89	6.1	0	2	135	0.0	1018.4	0	0.000	0.0
20100921 03:30	7.7	7.7	7.7	89	6.0	0	5	135	0.0	1018.5	0	0.000	0.0
20100921 03:35	7.7	7.7	7.7	89	6.0	0	3	135	0.0	1018.5	0	0.000	0.0
20100921 03:40	7.7	7.7	7.7	89	6.0	0	0	-100000	0.0	1018.5	0	0.000	0.0
20100921 03:45	7.6	7.6	7.6	89	5.9	0	2	135	0.0	1018.5	0	0.000	0.0
20100921 03:50	7.4	7.4	7.4	89	5.7	0	0	-100000	0.0	1018.5	0	0.000	0.0
20100921 03:55	7.3	7.3	7.3	89	5.6	0	2	135	0.0	1018.6	0	0.000	0.0
20100921 04:00	7.3	7.3	7.3	89	5.6	0	0	-100000	0.0	1018.7	0	0.000	0.0
20100921 04:05	7.2	7.2	7.2	89	5.5	0	2	135	0.0	1018.7	0	0.000	0.0
20100921 04:10	7.2	7.2	7.2	90	5.7	0	2	135	0.0	1018.7	0	0.000	0.0
20100921 04:15	7.2	7.2	7.2	90	5.6	0	0	-100000	0.0	1018.8	0	0.000	0.0
20100921 04:20	7.1	7.1	7.1	90	5.6	0	0	-100000	0.0	1018.9	0	0.000	0.0
20100921 04:25	7.1	7.1	7.1	90	5.5	0	0	-100000	0.0	1018.8	0	0.000	0.0
20100921 04:30	6.9	6.9	6.9	90	5.4	0	0	-100000	0.0	1018.8	0	0.000	0.0
20100921 04:35	6.9	6.9	6.9	90	5.4	0	2	135	0.0	1018.9	0	0.000	0.0
20100921 04:40	6.9	6.9	6.9	90	5.4	0	0	-100000	0.0	1018.9	0	0.000	0.0
20100921 04:45	6.8	6.8	6.8	90	5.3	0	0	-100000	0.0	1018.9	0	0.000	0.0
20100921 04:50	6.8	6.8	6.8	90	5.3	0	0	-100000	0.0	1018.9	0	0.000	0.0
20100921 04:55	6.8	6.8	6.8	90	5.3	0	2	135	0.0	1019.0	0	0.000	0.0
20100921 05:00	6.8	6.8	6.8	90	5.3	0	0	-100000	0.0	1019.0	0	0.000	0.0
20100921 05:05	6.7	6.7	6.7	90	5.2	0	0	-100000	0.0	1019.1	0	0.000	0.0
20100921 05:10	6.7	6.7	6.7	90	5.1	0	0	-100000	0.0	1019.1	0	0.000	0.0
20100921 05:15	6.6	6.6	6.6	90	5.0	0	0	-100000	0.0	1019.1	0	0.000	0.0
20100921 05:20	6.5	6.5	6.5	90	5.0	0	0	-100000	0.0	1019.1	0	0.000	0.0
20100921 05:25	6.4	6.4	6.4	90	4.9	0	0	-100000	0.0	1019.2	0	0.000	0.0
20100921 05:30	6.4	6.4	6.4	90	4.9	0	0	-100000	0.0	1019.2	0	0.000	0.0
20100921 05:35	6.5	6.5	6.5	91	5.1	0	0	-100000	0.0	1019.2	0	0.000	0.0
20100921 05:40	6.5	6.5	6.5	91	5.1	0	0	-100000	0.0	1019.3	0	0.000	0.0
20100921 05:45	6.6	6.6	6.6	91	5.2	0	3	135	0.0	1019.3	0	0.000	0.0
20100921 05:50	6.6	6.6	6.6	91	5.2	2	5	135	0.0	1019.2	0	0.000	0.0
20100921 05:55	6.6	6.6	6.6	91	5.2	0	3	135	0.0	1019.3	0	0.000	0.0
20100921 06:00	6.6	6.6	6.6	91	5.2	0	0	-100000	0.0	1019.3	0	0.000	0.0
20100921 06:05	6.6	6.6	6.6	91	5.2	0	2	135	0.0	1019.5	0	0.000	0.0
20100921 06:10	6.6	6.6	6.6	91	5.2	0	0	-100000	0.0	1019.6	0	0.000	0.0
20100921 06:15	6.6	6.6	6.6	91	5.2	0	2	135	0.0	1019.6	0	0.000	0.0
20100921 06:20	6.6	6.6	6.6	91	5.2	0	0	-100000	0.0	1019.6	0	0.000	0.0
20100921 06:25	6.5	6.5	6.5	91	5.1	0	3	135	0.0	1019.6	0	0.000	0.0
20100921 06:30	6.5	6.5	6.5	91	5.1	2	5	135	0.0	1019.7	0	0.000	0.0
20100921 06:35	6.5	6.5	6.5	91	5.1	2	5	135	0.0	1019.7	0	0.000	0.0
20100921 06:40	6.5	6.5	6.5	91	5.1	3	6	135	0.0	1019.6	0	0.000	0.0
20100921 06:45	6.6	6.6	6.6	91	5.2	2	6	135	0.0	1019.7	0	0.000	0.0
20100921 06:50	6.6	6.6	6.6	91	5.2	2	6	135	0.0	1019.7	0	0.000	0.0
20100921 06:55	6.7	6.7	6.7	91	5.3	2	5	135	0.0	1019.7	0	0.000	0.0
20100921 07:00	6.7	6.7	6.7	91	5.3	0	3	135	0.0	1019.8	0	0.000	0.0
20100921 07:05	6.7	6.7	6.7	91	5.3	0	3	135	0.0	1020.1	3	0.000	0.0
20100921 07:10	6.6	6.6	6.6	91	5.2	2	6	135	0.0	1020.2	6	0.000	0.0
20100921 07:15	6.6	6.6	6.6	91	5.2	2	5	135	0.0	1020.2	8	0.000	0.0
20100921 07:20	6.7	6.7	6.7	91	5.3	2	5	135	0.0	1020.2	11	0.000	0.0
20100921 07:25	6.7	6.7	6.7	91	5.3	0	3	135	0.0	1020.2	12	0.000	0.0
20100921 07:30	6.7	6.7	6.7	91	5.4	0	2	135	0.0	1020.3	14	0.000	0.0
20100921 07:35	6.8	6.8	6.8	91	5.4	0	5	135	0.0	1020.4	17	0.000	0.0
20100921 07:40	6.8	6.8	6.8	92	5.6	0	5	135	0.0	1020.4	18	0.000	0.0
20100921 07:45	6.9	6.9	6.9	92	5.7	2	6	135	0.0	1020.4	19	0.000	0.0
20100921 07:50	7.1	7.1	7.1	92	5.8	2	5	135	0.0	1020.3	20	0.000	0.0
20100921 07:55	7.2	7.2	7.2	92	6.0	0	3	135	0.0	1020.4	21	0.000	0.0
20100921 08:00	7.2	7.2	7.2	92	6.0	0	2	135	0.0	1020.4	22	0.000	0.0
20100921 08:05	7.2	7.2	7.2	92	6.0	0	2	135	0.0	1020.6	24	0.000	0.0
20100921 08:10	7.4	7.4	7.4	92	6.2	0	0	-100000	0.0	1020.7	26	0.000	0.0
20100921 08:15	7.5	7.5	7.5	92	6.3	0	2	135	0.0	1020.7	35	0.000	0.0
20100921 08:20	7.7	7.7	7.7	92	6.4	0	2	135	0.0	1020.7	30	0.000	0.0
20100921 08:25	7.9	7.9	7.9	92	6.7	0	5	135	0.0	1020.7	30	0.000	0.0
20100921 08:30	8.2	8.2	8.2	92	6.9	2	6	135	0.0	1020.6	32	0.000	0.0
20100921 08:35	8.5	8.5	8.5	92	7.3	5	8	180	0.0	1020.6	33	0.000	0.0
20100921 08:40	8.8	8.8	8.8	91	7.4	5	10	180	0.0	1020.6	33	0.000	0.0
20100921 08:45	9.2	9.2	9.2	91	7.8	3	6	180	0.0	1020.6	35	0.000	0.0
20100921 08:50	9.6	9.6	9.6	90	8.0	5	10	180	0.0	1020.5	34	0.000	0.0
20100921 08:55	9.8	9.2	9.8	89	8.1	6	10	202	0.0	1020.6	34	0.000	0.0
20100921 09:00	10.1	10.1	10.1	88	8.2	5	8	202	0.0	1020.6	37	0.025	0.0
20100921 09:05	10.3	10.3	10.3	88	8.4	5	8	202	0.0	1020.6	38	0.000	0.0
20100921 09:10	10.6	10.6	10.6	88	8.7	3	6	202	0.0	1020.7	39	0.000	0.0
20100921 09:15	10.8	10.8	10.8	87	8.8	2	6	202	0.0	1020.7	39	0.000	0.0
20100921 09:20	11.1	11.1	11.1	87	9.0	3	8	202	0.0	1020.7	39	0.000	0.0
20100921 09:25	11.3	11.3	11.3	86	9.0	2	5	202	0.0	1020.7	38	0.000	0.0
20100921 09:30	11.5	11.5	11.5	85	9.1	2	6	202	0.0	1020.6	39	0.000	0.0
20100921 09:35	11.7	11.7	11.7	85	9.2	2	5	202	0.0	1020.6	39	0.000	0.0
20100921 09:40	11.9	11.9	11.9	84	9.3	2	5	202	0.0	1020.6	38	0.000	0.0
20100921 09:45	12.1	12.1	12.1	84	9.5	0	3	202	0.0	1020.7	40	0.000	0.0
20100921 09:50	12.3	12.3	12.3	83	9.5	0	3	202	0.0	1020.7	41	0.000	0.0
20100921 09:55	12.6	12.6	12.6	82	9.6	0	3	202	0.0	1020.5	41	0.000	0.0
20100921 10:00	12.8	12.8	12.8	80	9.4	2	5	202	0.0	1020.6	42	0.025	0.0
20100921 10:05	13.0	13.0	13.0	79	9.4	2	6	202	0.0	1020.7	42	0.000	0.0
20100921 10:10	13.2	13.2	13.2	78	9.4	2	6	202	0.0	1020.6	42	0.000	0.0
20100921 10:15	13.4	13.4	13.4	77	9.4	0	3	202	0.0	1020.6	42	0.000	0.0
20100921 10:20	13.6	13.6	13.6	77	9.7	2	6	202	0.0	1020.6	44	0.000	0.0
20100921 10:25	13.8	13.8	13.8	76	9.6	0	3	202	0.0	1020.6	44	0.000	0.0
20100921 10:30	14.0	14.0	14.0	76	9.8	2	3	202	0.0	1020.6	46	0.000	0.0
20100921 10:35	14.2	14.2	14.2	75	9.8	0	3	202	0.0	1020.7	47	0.000	0.0
20100921 10:40	14.3	14.3	14.3	75	10.0	0	3	202	0.0	1020.5	49	0.000	0.0
20100921 10:45	14.6	14.6	14.6	74	10.0	0	5	202	0.0	1020.5	51	0.000	0.0
20100921 10:50	14.8	14.8	14.8	73	10.0	0	5	202	0.0	1020.5	52	0.000	0.0
20100921 10:55	15.0	15.0	15.0	73	10.2	0	3	202	0.0	1020.6	54	0.000	0.0
20100921 11:00	15.0	15.0	15.0	73	10.2	0	3	202	0.0	1020.6	54	0.025	0.0
20100921 11:05	15.3	15.3	15.3	73	10.5	0	3	202	0.0	1020.6	55	0.000	1.0
20100921 11:10	15.6	15.6	15.6	73	10.7	2	8	248	0.0	1020.7	58	0.000	1.9
20100921 11:15	15.8	15.8	15.8	72	10.7	2	5	248	0.0	1020.6	61	0.000	1.9
20100921 11:20	15.9	15.9	15.9	71	10.7	0	3	248	0.0	1020.6	554	0.000	2.2
20100921 11:25	16.2	16.2	16.2	69	10.5	2	6	248	0.0	1020.6	576	0.000	3.2
20100921 11:30	16.4	16.4	16.4	67	10.2	2	5	248	0.0	1020.6	587	0.000	3.4
20100921 11:35	16.7	16.7	16.7	66	10.3	3	6	248	0.0	1020.5	590	0.000	3.5
20100921 11:40	17.0	17.0	17.0	65	10.4	2	5	248	0.0	1020.5	609	0.000	3.7
20100921 11:45	17.2	17.2	17.2	65	10.5	2	8	248	0.0	1020.5	616	0.000	3.8
20100921 11:50	17.2	17.2	17.2	66	10.8	5	10	45	0.0	1020.5	586	0.000	3.7
20100921 11:55	17.4	17.4	17.4	66	11.0	3	6	68	0.0	1020.5	625	0.000	3.9
20100921 12:00	17.7	17.7	17.7	64	10.8	3	8	90	0.0	1020.4	612	0.254	3.9
20100921 12:05	18.0	18.0	18.0	64	11.1	2	6	90	0.0	1020.4	622	0.000	4.0
20100921 12:10	18.3	18.3	18.3	63	11.2	2	6	90	0.0	1020.3	633	0.000	4.1
20100921 12:15	18.7	18.7	18.7	61	11.0	3	8	112	0.0	1020.3	640	0.000	4.2
20100921 12:20	18.8	18.8	18.8	59	10.6	3	6	112	0.0	1020.2	637	0.000	4.2
20100921 12:25	18.8	18.8	18.8	60	10.9	3	8	112	0.0	1020.2	639	0.000	4.3
20100921 12:30	18.9	18.9	18.9	60	11.0	3	6	112	0.0	1020.2	643	0.000	4.3
20100921 12:35	19.1	19.1	19.1	59	10.9	2	6	112	0.0	1020.1	642	0.000	4.3
20100921 12:40	19.2	19.2	19.2	59	11.0	3	8	112	0.0	1019.9	648	0.000	4.4
20100921 12:45	19.1	19.1	19.1	59	10.9	6	10	112	0.0	1020.1	654	0.000	4.4
20100921 12:50	19.2	19.2	19.2	59	11.0	3	10	112	0.0	1019.8	642	0.000	4.5
20100921 12:55	19.3	19.3	19.3	58	10.8	3	6	112	0.0	1019.9	649	0.000	4.5
20100921 13:00	19.4	19.4	19.4	57	10.7	3	8	112	0.0	1019.9	655	0.381	4.5
20100921 13:05	19.7	19.7	19.7	58	11.2	3	11	112	0.0	1019.8	660	0.000	4.5
20100921 13:10	19.7	19.7	19.7	57	10.9	5	8	90	0.0	1019.8	659	0.000	4.5
20100921 13:15	19.4	19.4	19.4	55	10.2	2	5	68	0.0	1019.8	661	0.000	4.6
20100921 13:20	19.6	19.6	19.6	56	10.5	3	6	68	0.0	1019.8	662	0.000	4.6
20100921 13:25	19.7	19.7	19.7	56	10.6	3	6	68	0.0	1019.7	660	0.000	4.5
20100921 13:30	19.8	19.8	19.8	57	11.0	5	10	68	0.0	1019.7	663	0.000	4.5
20100921 13:35	19.9	19.9	19.9	55	10.6	2	6	90	0.0	1019.7	657	0.000	4.5
20100921 13:40	20.0	20.0	20.0	56	10.9	2	5	90	0.0	1019.7	652	0.000	4.4
20100921 13:45	20.2	20.2	20.2	55	10.8	3	8	90	0.0	1019.7	644	0.000	4.4
20100921 13:50	20.4	20.4	20.4	56	11.3	3	8	112	0.0	1019.5	645	0.000	4.3
20100921 13:55	20.8	20.8	20.8	55	11.4	2	6	112	0.0	1019.4	644	0.000	4.3
20100921 14:00	21.0	21.0	21.0	54	11.3	2	5	112	0.0	1019.4	640	0.406	4.3
20100921 14:05	20.9	20.9	20.9	54	11.3	3	8	112	0.0	1019.4	637	0.000	4.2
20100921 14:10	20.9	20.9	20.9	53	10.9	3	8	90	0.0	1019.4	632	0.000	4.2
20100921 14:15	20.9	20.9	20.9	54	11.3	6	14	68	0.0	1019.4	631	0.000	4.1
20100921 14:20	20.8	20.8	20.8	52	10.6	3	8	22	0.0	1019.4	610	0.000	4.0
20100921 14:25	20.9	20.9	20.9	52	10.7	6	19	45	0.0	1019.4	627	0.000	4.0
20100921 14:30	21.1	21.1	21.1	53	11.1	3	6	112	0.0	1019.4	622	0.000	4.0
20100921 14:35	21.3	21.3	21.3	52	11.0	3	8	112	0.0	1019.3	612	0.000	3.8
20100921 14:40	21.3	21.3	21.3	53	11.4	6	11	90	0.0	1019.3	605	0.000	3.7
20100921 14:45	21.3	21.3	21.3	51	10.8	3	8	112	0.0	1019.3	601	0.000	3.7
20100921 14:50	21.2	21.2	21.2	51	10.7	5	11	22	0.0	1019.3	594	0.000	3.5
20100921 14:55	21.3	21.3	21.3	51	10.7	2	6	45	0.0	1019.1	588	0.000	3.5
20100921 15:00	21.4	21.4	21.4	50	10.6	2	8	90	0.0	1019.1	579	0.381	3.4
20100921 15:05	21.5	21.5	21.5	51	10.9	5	11	90	0.0	1019.1	578	0.000	3.3
20100921 15:10	21.4	21.4	21.4	52	11.2	3	10	112	0.0	1019.1	566	0.000	3.2
20100921 15:15	21.6	21.6	21.6	51	11.0	5	10	68	0.0	1019.1	557	0.000	3.1
20100921 15:20	21.6	21.6	21.6	50	10.7	5	8	68	0.0	1019.0	550	0.000	3.0
20100921 15:25	21.7	21.7	21.7	51	11.1	3	8	22	0.0	1019.0	538	0.000	2.9
20100921 15:30	21.7	21.7	21.7	52	11.4	5	10	90	0.0	1019.0	525	0.000	2.7
20100921 15:35	21.6	21.6	21.6	52	11.3	6	11	22	0.0	1019.0	515	0.000	2.6
20100921 15:40	21.5	21.5	21.5	54	11.8	5	10	68	0.0	1018.9	497	0.000	2.5
20100921 15:45	21.5	21.5	21.5	54	11.8	6	11	68	0.0	1018.9	483	0.000	2.4
20100921 15:50	21.4	21.4	21.4	53	11.5	6	14	68	0.0	1018.9	483	0.000	2.3
20100921 15:55	21.4	21.4	21.4	53	11.4	6	11	68	0.0	1018.9	463	0.000	2.2
20100921 16:00	21.4	21.4	21.4	52	11.1	3	8	68	0.0	1018.9	462	0.356	2.1
20100921 16:05	21.2	21.2	21.2	52	11.0	10	18	45	0.0	1019.0	450	0.000	2.0
20100921 16:10	21.3	21.3	21.3	51	10.7	6	11	68	0.0	1019.0	441	0.000	1.9
20100921 16:15	21.3	21.3	21.3	52	11.0	8	14	22	0.0	1019.0	427	0.000	1.8
20100921 16:20	21.3	21.3	21.3	51	10.7	6	11	68	0.0	1019.0	416	0.000	1.7
20100921 16:25	21.2	21.2	21.2	51	10.7	3	8	90	0.0	1019.0	405	0.000	1.6
20100921 16:30	21.3	21.3	21.3	51	10.7	6	11	68	0.0	1019.0	392	0.000	1.5
20100921 16:35	21.3	21.3	21.3	52	11.1	6	14	45	0.0	1019.1	380	0.000	1.4
20100921 16:40	21.4	21.4	21.4	51	10.8	6	10	68	0.0	1019.1	369	0.000	1.3
20100921 16:45	21.4	21.4	21.4	50	10.5	8	11	68	0.0	1019.2	352	0.000	1.3
20100921 16:50	21.3	21.3	21.3	51	10.7	10	14	68	0.0	1019.2	345	0.000	1.2
20100921 16:55	21.2	21.2	21.2	52	10.9	5	10	68	0.0	1019.1	330	0.000	1.1
20100921 17:00	21.2	21.2	21.2	52	11.0	5	10	112	0.0	1019.3	321	0.279	1.0
20100921 17:05	21.1	21.1	21.1	51	10.5	6	11	45	0.0	1019.2	305	0.000	0.9
20100921 17:10	20.9	20.9	20.9	51	10.4	6	16	90	0.0	1019.3	290	0.000	0.9
20100921 17:15	20.9	20.9	20.9	51	10.4	5	11	90	0.0	1019.2	280	0.000	0.8
20100921 17:20	20.9	20.9	20.9	50	10.1	5	8	90	0.0	1019.2	268	0.000	0.7
20100921 17:25	20.8	20.8	20.8	50	10.0	5	10	90	0.0	1019.2	250	0.000	0.7
20100921 17:30	20.8	20.8	20.8	50	10.0	5	10	112	0.0	1019.4	236	0.000	0.6
20100921 17:35	20.8	20.8	20.8	51	10.3	6	11	68	0.0	1019.4	221	0.000	0.6
20100921 17:40	20.7	20.7	20.7	51	10.2	3	10	90	0.0	1019.4	203	0.000	0.5
20100921 17:45	20.7	20.7	20.7	51	10.2	5	10	90	0.0	1019.4	187	0.000	0.3
20100921 17:50	20.6	20.6	20.6	52	10.4	5	10	135	0.0	1019.4	170	0.000	0.0
20100921 17:55	20.4	20.4	20.4	52	10.2	5	11	90	0.0	1019.4	151	0.000	0.0
20100921 18:00	20.3	20.3	20.3	52	10.1	3	8	112	0.0	1019.4	138	0.178	0.0
20100921 18:05	20.1	20.1	20.1	53	10.2	3	8	90	0.0	1019.4	123	0.000	0.0
20100921 18:10	20.0	20.0	20.0	54	10.4	3	8	112	0.0	1019.4	106	0.000	0.0
20100921 18:15	19.9	19.9	19.9	54	10.3	3	8	112	0.0	1019.4	90	0.000	0.0
20100921 18:20	19.7	19.7	19.7	55	10.4	2	6	112	0.0	1019.4	79	0.000	0.0
20100921 18:25	19.6	19.6	19.6	55	10.3	2	6	112	0.0	1019.6	64	0.000	0.0
20100921 18:30	19.4	19.4	19.4	55	10.2	3	6	90	0.0	1019.6	48	0.000	0.0
20100921 18:35	19.3	19.3	19.3	56	10.3	0	5	90	0.0	1019.6	40	0.000	0.0
20100921 18:40	19.1	19.1	19.1	56	10.1	0	5	90	0.0	1019.6	28	0.000	0.0
20100921 18:45	18.9	18.9	18.9	57	10.2	0	5	90	0.0	1019.7	20	0.000	0.0
20100921 18:50	18.7	18.7	18.7	58	10.2	0	3	90	0.0	1019.7	16	0.000	0.0
20100921 18:55	18.4	18.4	18.4	59	10.2	0	2	90	0.0	1019.8	13	0.000	0.0
20100921 19:00	18.2	18.2	18.2	60	10.3	0	2	90	0.0	1019.8	11	0.051	0.0
20100921 19:05	17.9	17.9	17.9	61	10.3	0	2	90	0.0	1019.9	8	0.000	0.0
20100921 19:10	17.7	17.7	17.7	62	10.3	0	2	90	0.0	1019.9	5	0.000	0.0
20100921 19:15	17.4	17.4	17.4	63	10.3	0	2	90	0.0	1019.9	1	0.000	0.0
20100921 19:20	17.2	17.2	17.2	64	10.3	0	2	90	0.0	1020.0	0	0.000	0.0
20100921 19:25	16.9	16.9	16.9	65	10.3	0	2	90	0.0	1020.0	0	0.000	0.0
20100921 19:30	16.6	16.6	16.6	66	10.2	0	2	90	0.0	1020.1	0	0.000	0.0
20100921 19:35	16.3	16.3	16.3	67	10.2	0	2	90	0.0	1020.1	0	0.000	0.0
20100921 19:40	16.2	16.2	16.2	68	10.3	0	2	90	0.0	1020.2	0	0.000	0.0
20100921 19:45	16.0	16.0	16.0	68	10.1	0	2	90	0.0	1020.3	0	0.000	0.0
20100921 19:50	15.8	15.8	15.8	69	10.2	0	2	90	0.0	1020.3	0	0.000	0.0
20100921 19:55	15.7	15.7	15.7	69	10.0	0	2	90	0.0	1020.5	0	0.000	0.0
20100921 20:00	15.5	15.5	15.5	69	9.8	0	5	90	0.0	1020.5	0	0.000	0.0
20100921 20:05	15.3	15.3	15.3	70	9.9	0	2	90	0.0	1020.1	0	0.000	0.0
20100921 20:10	15.2	15.2	15.2	70	9.7	0	2	90	0.0	1020.3	0	0.000	0.0
20100921 20:15	15.0	15.0	15.0	70	9.6	2	5	90	0.0	1020.3	0	0.000	0.0
20100921 20:20	15.0	15.0	15.0	70	9.6	3	6	90	0.0	1020.4	0	0.000	0.0
20100921 20:25	15.0	15.0	15.0	70	9.6	2	6	90	0.0	1020.4	0	0.000	0.0
20100921 20:30	14.9	14.9	14.9	71	9.7	3	6	90	0.0	1020.5	0	0.000	0.0
20100921 20:35	14.8	14.8	14.8	71	9.6	2	5	90	0.0	1020.5	0	0.000	0.0
20100921 20:40	14.6	14.6	14.6	72	9.6	2	5	90	0.0	1020.4	0	0.000	0.0
20100921 20:45	14.5	14.5	14.5	73	9.7	2	5	90	0.0	1020.5	0	0.000	0.0
20100921 20:50	14.3	14.3	14.3	73	9.6	2	5	90	0.0	1020.5	0	0.000	0.0
20100921 20:55	14.2	14.2	14.2	74	9.6	0	2	90	0.0	1020.5	0	0.000	0.0
20100921 21:00	13.9	13.9	13.9	75	9.6	0	2	90	0.0	1020.7	0	0.025	0.0
20100921 21:05	13.8	13.8	13.8	75	9.4	0	3	90	0.0	1020.3	0	0.000	0.0
20100921 21:10	13.6	13.6	13.6	76	9.5	0	2	90	0.0	1020.4	0	0.000	0.0
20100921 21:15	13.4	13.4	13.4	77	9.5	0	2	90	0.0	1020.5	0	0.000	0.0
20100921 21:20	13.3	13.3	13.3	77	9.3	0	3	90	0.0	1020.6	0	0.000	0.0
20100921 21:25	13.1	13.1	13.1	78	9.4	0	2	90	0.0	1020.6	0	0.000	0.0
20100921 21:30	12.9	12.9	12.9	78	9.1	0	2	90	0.0	1020.6	0	0.000	0.0
20100921 21:35	12.7	12.7	12.7	78	8.9	0	0	-100000	0.0	1020.6	0	0.000	0.0
20100921 21:40	12.5	12.5	12.5	79	9.0	0	0	-100000	0.0	1020.7	0	0.000	0.0
20100921 21:45	12.3	12.3	12.3	80	9.0	0	0	-100000	0.0	1020.8	0	0.000	0.0
20100921 21:50	12.2	12.2	12.2	81	9.1	0	2	90	0.0	1020.9	0	0.000	0.0
20100921 21:55	12.1	12.1	12.1	81	8.9	0	0	-100000	0.0	1020.9	0	0.000	0.0
20100921 22:00	11.9	11.9	11.9	81	8.8	0	0	-100000	0.0	1020.8	0	0.025	0.0
20100921 22:05	11.8	11.8	11.8	82	8.9	0	2	90	0.0	1020.7	0	0.000	0.0
20100921 22:10	11.8	11.8	11.8	82	8.8	0	0	-100000	0.0	1020.7	0	0.000	0.0
20100921 22:15	11.7	11.7	11.7	82	8.8	0	0	-100000	0.0	1020.7	0	0.000	0.0
20100921 22:20	11.6	11.6	11.6	82	8.6	0	0	-100000	0.0	1020.7	0	0.000	0.0
20100921 22:25	11.5	11.5	11.5	82	8.5	0	0	-100000	0.0	1020.8	0	0.000	0.0
20100921 22:30	11.3	11.3	11.3	82	8.4	0	0	-100000	0.0	1020.8	0	0.000	0.0
20100921 22:35	11.2	11.2	11.2	83	8.4	0	0	-100000	0.0	1020.9	0	0.000	0.0
20100921 22:40	11.1	11.1	11.1	83	8.3	0	0	-100000	0.0	1020.9	0	0.000	0.0
20100921 22:45	10.9	10.9	10.9	84	8.3	0	0	-100000	0.0	1020.9	0	0.000	0.0
20100921 22:50	10.8	10.8	10.8	84	8.2	0	2	90	0.0	1020.9	0	0.000	0.0
20100921 22:55	10.7	10.7	10.7	85	8.2	0	0	-100000	0.0	1020.9	0	0.000	0.0
20100921 23:00	10.6	10.6	10.6	85	8.1	0	0	-100000	0.0	1020.9	0	0.000	0.0
20100921 23:05	10.5	10.5	10.5	85	8.1	0	0	-100000	0.0	1020.6	0	0.000	0.0
20100921 23:10	10.4	10.4	10.4	85	8.0	0	0	-100000	0.0	1020.7	0	0.000	0.0
20100921 23:15	10.3	10.3	10.3	85	7.9	0	0	-100000	0.0	1020.7	0	0.000	0.0
20100921 23:20	10.2	10.2	10.2	86	8.0	0	0	-100000	0.0	1020.8	0	0.000	0.0
20100921 23:25	10.2	10.2	10.2	86	7.9	0	0	-100000	0.0	1020.8	0	0.000	0.0
20100921 23:30	10.1	10.1	10.1	86	7.8	0	0	-100000	0.0	1020.8	0	0.000	0.0
20100921 23:35	9.9	9.9	9.9	86	7.7	0	0	-100000	0.0	1020.8	0	0.000	0.0
20100921 23:40	9.8	9.8	9.8	86	7.6	0	0	-100000	0.0	1020.8	0	0.000	0.0
20100921 23:45	9.7	9.7	9.7	86	7.5	0	0	-100000	0.0	1020.8	0	0.000	0.0
20100921 23:50	9.6	9.6	9.6	86	7.4	0	0	-100000	0.0	1020.8	0	0.000	0.0
20100921 23:55	9.6	9.6	9.6	86	7.3	0	0	-100000	0.0	1020.8	0	0.000	0.0



Please note the license to use and transfer of this data:
http://creativecommons.org/licenses/by-nc-sa/3.0/deed.en

Bitte beachten sie die Lizenz zur Verwertung und Weitergabe der Daten:
http://creativecommons.org/licenses/by-nc-sa/3.0/deed.de

zurück zur Übersicht der Archivdaten (Monats und Tagesdaten)

Cookies helfen bei der Bereitstellung von Inhalten. Durch die Nutzung dieser Seiten erklärst du dich damit einverstanden, dass Cookies auf deinem Rechner gespeichert werden. Weitere Information